sensor_id;sensor_type;location;lat;lon;timestamp;temperature;humidity
14735;DHT22;7458;49.002;8.472;2023-05-10T00:03:08;14.40;99.90
14735;DHT22;7458;49.002;8.472;2023-05-10T00:05:34;13.80;99.90
14735;DHT22;7458;49.002;8.472;2023-05-10T00:10:26;14.10;99.90
14735;DHT22;7458;49.002;8.472;2023-05-10T00:12:52;14.70;99.90
14735;DHT22;7458;49.002;8.472;2023-05-10T00:15:17;14.80;99.90
14735;DHT22;7458;49.002;8.472;2023-05-10T00:17:43;14.70;99.90
14735;DHT22;7458;49.002;8.472;2023-05-10T00:20:09;14.40;99.90
14735;DHT22;7458;49.002;8.472;2023-05-10T00:22:35;14.40;99.90
14735;DHT22;7458;49.002;8.472;2023-05-10T00:27:28;15.00;99.90
14735;DHT22;7458;49.002;8.472;2023-05-10T00:32:19;14.60;99.90
14735;DHT22;7458;49.002;8.472;2023-05-10T00:34:45;14.10;99.90
14735;DHT22;7458;49.002;8.472;2023-05-10T00:37:11;14.50;99.90
14735;DHT22;7458;49.002;8.472;2023-05-10T00:39:37;14.40;99.90
14735;DHT22;7458;49.002;8.472;2023-05-10T00:44:29;14.20;99.90
14735;DHT22;7458;49.002;8.472;2023-05-10T00:46:57;14.50;99.90
14735;DHT22;7458;49.002;8.472;2023-05-10T00:49:24;14.60;99.90
14735;DHT22;7458;49.002;8.472;2023-05-10T00:51:50;14.20;99.90
14735;DHT22;7458;49.002;8.472;2023-05-10T00:54:16;14.20;99.90
14735;DHT22;7458;49.002;8.472;2023-05-10T00:56:42;14.80;99.90
14735;DHT22;7458;49.002;8.472;2023-05-10T00:59:15;13.80;99.90
14735;DHT22;7458;49.002;8.472;2023-05-10T01:01:42;14.00;99.90
14735;DHT22;7458;49.002;8.472;2023-05-10T01:04:11;14.00;99.90
14735;DHT22;7458;49.002;8.472;2023-05-10T01:06:39;13.90;99.90
14735;DHT22;7458;49.002;8.472;2023-05-10T01:09:05;14.40;99.90
14735;DHT22;7458;49.002;8.472;2023-05-10T01:11:33;14.40;99.90
14735;DHT22;7458;49.002;8.472;2023-05-10T01:14:01;14.20;99.90
14735;DHT22;7458;49.002;8.472;2023-05-10T01:16:33;14.20;99.90
14735;DHT22;7458;49.002;8.472;2023-05-10T01:19:04;13.90;99.90
14735;DHT22;7458;49.002;8.472;2023-05-10T01:24:59;13.80;99.90
14735;DHT22;7458;49.002;8.472;2023-05-10T01:34:16;14.10;99.90
14735;DHT22;7458;49.002;8.472;2023-05-10T01:39:49;14.00;99.90
14735;DHT22;7458;49.002;8.472;2023-05-10T01:42:55;14.10;99.90
14735;DHT22;7458;49.002;8.472;2023-05-10T01:45:37;15.40;99.90
14735;DHT22;7458;49.002;8.472;2023-05-10T01:48:14;14.00;99.90
14735;DHT22;7458;49.002;8.472;2023-05-10T01:50:43;14.40;99.90
14735;DHT22;7458;49.002;8.472;2023-05-10T01:53:13;13.90;99.90
14735;DHT22;7458;49.002;8.472;2023-05-10T01:55:51;13.60;99.90
14735;DHT22;7458;49.002;8.472;2023-05-10T01:58:22;13.70;99.90
14735;DHT22;7458;49.002;8.472;2023-05-10T02:00:54;14.00;99.90
14735;DHT22;7458;49.002;8.472;2023-05-10T02:03:23;14.20;99.90
14735;DHT22;7458;49.002;8.472;2023-05-10T02:05:52;14.10;99.90
14735;DHT22;7458;49.002;8.472;2023-05-10T02:08:21;14.00;99.90
14735;DHT22;7458;49.002;8.472;2023-05-10T02:10:50;14.40;99.90
14735;DHT22;7458;49.002;8.472;2023-05-10T02:13:18;13.40;99.90
14735;DHT22;7458;49.002;8.472;2023-05-10T02:15:48;14.10;99.90
14735;DHT22;7458;49.002;8.472;2023-05-10T02:18:16;13.90;99.90
14735;DHT22;7458;49.002;8.472;2023-05-10T02:20:45;13.90;99.90
14735;DHT22;7458;49.002;8.472;2023-05-10T02:23:13;14.20;99.90
14735;DHT22;7458;49.002;8.472;2023-05-10T02:25:43;13.90;99.90
14735;DHT22;7458;49.002;8.472;2023-05-10T02:28:11;15.40;99.90
14735;DHT22;7458;49.002;8.472;2023-05-10T02:30:39;13.70;99.90
14735;DHT22;7458;49.002;8.472;2023-05-10T02:33:05;14.10;99.90
14735;DHT22;7458;49.002;8.472;2023-05-10T02:35:34;14.40;99.90
14735;DHT22;7458;49.002;8.472;2023-05-10T02:38:01;14.00;99.90
14735;DHT22;7458;49.002;8.472;2023-05-10T02:40:28;13.90;99.90
14735;DHT22;7458;49.002;8.472;2023-05-10T02:42:56;14.10;99.90
14735;DHT22;7458;49.002;8.472;2023-05-10T02:45:27;14.00;99.90
14735;DHT22;7458;49.002;8.472;2023-05-10T02:47:56;14.10;99.90
14735;DHT22;7458;49.002;8.472;2023-05-10T02:50:22;14.20;99.90
14735;DHT22;7458;49.002;8.472;2023-05-10T02:53:00;14.20;99.90
14735;DHT22;7458;49.002;8.472;2023-05-10T02:55:34;14.70;99.90
14735;DHT22;7458;49.002;8.472;2023-05-10T02:58:03;13.40;99.90
14735;DHT22;7458;49.002;8.472;2023-05-10T03:00:31;14.00;99.90
14735;DHT22;7458;49.002;8.472;2023-05-10T03:02:57;13.40;99.90
14735;DHT22;7458;49.002;8.472;2023-05-10T03:05:23;14.00;99.90
14735;DHT22;7458;49.002;8.472;2023-05-10T03:07:50;14.10;99.90
14735;DHT22;7458;49.002;8.472;2023-05-10T03:10:17;13.40;99.90
14735;DHT22;7458;49.002;8.472;2023-05-10T03:18:22;14.30;99.90
14735;DHT22;7458;49.002;8.472;2023-05-10T03:21:04;13.80;99.90
14735;DHT22;7458;49.002;8.472;2023-05-10T03:23:35;13.60;99.90
14735;DHT22;7458;49.002;8.472;2023-05-10T03:26:26;14.20;99.90
14735;DHT22;7458;49.002;8.472;2023-05-10T03:28:53;13.90;99.90
14735;DHT22;7458;49.002;8.472;2023-05-10T03:31:19;14.20;99.90
14735;DHT22;7458;49.002;8.472;2023-05-10T03:33:47;13.30;99.90
14735;DHT22;7458;49.002;8.472;2023-05-10T03:36:14;13.70;99.90
14735;DHT22;7458;49.002;8.472;2023-05-10T03:41:06;13.90;99.90
14735;DHT22;7458;49.002;8.472;2023-05-10T03:45:58;14.00;99.90
14735;DHT22;7458;49.002;8.472;2023-05-10T03:48:23;13.70;99.90
14735;DHT22;7458;49.002;8.472;2023-05-10T03:53:15;13.80;99.90
14735;DHT22;7458;49.002;8.472;2023-05-10T03:55:41;13.50;99.90
14735;DHT22;7458;49.002;8.472;2023-05-10T03:58:10;13.90;99.90
14735;DHT22;7458;49.002;8.472;2023-05-10T04:00:36;14.00;99.90
14735;DHT22;7458;49.002;8.472;2023-05-10T04:03:02;12.80;99.90
14735;DHT22;7458;49.002;8.472;2023-05-10T04:05:28;14.10;99.90
14735;DHT22;7458;49.002;8.472;2023-05-10T04:07:54;12.70;99.90
14735;DHT22;7458;49.002;8.472;2023-05-10T04:10:20;13.70;99.90
14735;DHT22;7458;49.002;8.472;2023-05-10T04:12:46;14.20;99.90
14735;DHT22;7458;49.002;8.472;2023-05-10T04:17:38;13.70;99.90
14735;DHT22;7458;49.002;8.472;2023-05-10T04:20:04;13.80;99.90
14735;DHT22;7458;49.002;8.472;2023-05-10T04:22:32;13.70;99.90
14735;DHT22;7458;49.002;8.472;2023-05-10T04:24:57;13.50;99.90
14735;DHT22;7458;49.002;8.472;2023-05-10T04:27:23;14.00;99.90
14735;DHT22;7458;49.002;8.472;2023-05-10T04:29:49;14.00;99.90
14735;DHT22;7458;49.002;8.472;2023-05-10T04:32:14;14.20;99.90
14735;DHT22;7458;49.002;8.472;2023-05-10T04:42:01;14.60;99.90
14735;DHT22;7458;49.002;8.472;2023-05-10T04:44:28;14.40;99.90
14735;DHT22;7458;49.002;8.472;2023-05-10T04:46:55;14.40;99.90
14735;DHT22;7458;49.002;8.472;2023-05-10T04:49:20;13.90;99.90
14735;DHT22;7458;49.002;8.472;2023-05-10T04:51:47;14.60;99.90
14735;DHT22;7458;49.002;8.472;2023-05-10T04:54:12;14.00;99.90
14735;DHT22;7458;49.002;8.472;2023-05-10T04:56:38;14.40;99.90
14735;DHT22;7458;49.002;8.472;2023-05-10T04:59:04;14.10;99.90
14735;DHT22;7458;49.002;8.472;2023-05-10T05:01:29;14.40;99.90
14735;DHT22;7458;49.002;8.472;2023-05-10T05:03:55;14.20;99.90
14735;DHT22;7458;49.002;8.472;2023-05-10T05:06:21;14.10;99.90
14735;DHT22;7458;49.002;8.472;2023-05-10T05:08:47;13.80;99.90
14735;DHT22;7458;49.002;8.472;2023-05-10T05:11:14;14.50;99.90
14735;DHT22;7458;49.002;8.472;2023-05-10T05:16:06;14.10;99.90
14735;DHT22;7458;49.002;8.472;2023-05-10T05:20:59;14.70;99.90
14735;DHT22;7458;49.002;8.472;2023-05-10T05:23:24;14.70;99.90
14735;DHT22;7458;49.002;8.472;2023-05-10T05:25:54;14.40;99.90
14735;DHT22;7458;49.002;8.472;2023-05-10T05:28:20;14.50;99.90
14735;DHT22;7458;49.002;8.472;2023-05-10T05:33:16;15.00;99.90
14735;DHT22;7458;49.002;8.472;2023-05-10T05:38:12;15.30;99.90
14735;DHT22;7458;49.002;8.472;2023-05-10T05:40:38;15.60;99.90
14735;DHT22;7458;49.002;8.472;2023-05-10T05:43:04;14.90;99.90
14735;DHT22;7458;49.002;8.472;2023-05-10T05:45:29;15.20;99.90
14735;DHT22;7458;49.002;8.472;2023-05-10T05:47:55;15.50;99.90
14735;DHT22;7458;49.002;8.472;2023-05-10T05:50:21;15.70;99.90
14735;DHT22;7458;49.002;8.472;2023-05-10T05:52:47;15.00;99.90
14735;DHT22;7458;49.002;8.472;2023-05-10T05:55:12;15.20;99.90
14735;DHT22;7458;49.002;8.472;2023-05-10T05:57:38;15.80;99.90
14735;DHT22;7458;49.002;8.472;2023-05-10T06:00:04;15.00;99.90
14735;DHT22;7458;49.002;8.472;2023-05-10T06:02:31;14.90;99.90
14735;DHT22;7458;49.002;8.472;2023-05-10T06:04:56;15.30;99.90
14735;DHT22;7458;49.002;8.472;2023-05-10T06:07:22;14.90;99.90
14735;DHT22;7458;49.002;8.472;2023-05-10T06:12:14;15.40;99.90
14735;DHT22;7458;49.002;8.472;2023-05-10T06:17:06;14.60;99.90
14735;DHT22;7458;49.002;8.472;2023-05-10T06:19:32;15.70;99.90
14735;DHT22;7458;49.002;8.472;2023-05-10T06:21:57;16.00;99.90
14735;DHT22;7458;49.002;8.472;2023-05-10T06:24:23;15.50;99.90
14735;DHT22;7458;49.002;8.472;2023-05-10T06:26:49;15.80;99.90
14735;DHT22;7458;49.002;8.472;2023-05-10T06:34:08;15.70;99.90
14735;DHT22;7458;49.002;8.472;2023-05-10T06:36:34;15.70;99.90
14735;DHT22;7458;49.002;8.472;2023-05-10T06:38:59;15.80;99.90
14735;DHT22;7458;49.002;8.472;2023-05-10T06:43:52;15.90;99.90
14735;DHT22;7458;49.002;8.472;2023-05-10T06:46:17;16.00;99.90
14735;DHT22;7458;49.002;8.472;2023-05-10T06:48:43;16.20;99.90
14735;DHT22;7458;49.002;8.472;2023-05-10T06:51:09;16.00;99.90
14735;DHT22;7458;49.002;8.472;2023-05-10T06:53:34;16.10;99.90
14735;DHT22;7458;49.002;8.472;2023-05-10T06:56:03;16.90;99.90
14735;DHT22;7458;49.002;8.472;2023-05-10T06:58:29;17.40;99.90
14735;DHT22;7458;49.002;8.472;2023-05-10T07:01:02;17.40;99.90
14735;DHT22;7458;49.002;8.472;2023-05-10T07:03:28;16.40;99.90
14735;DHT22;7458;49.002;8.472;2023-05-10T07:05:54;16.20;99.90
14735;DHT22;7458;49.002;8.472;2023-05-10T07:08:32;16.20;99.90
14735;DHT22;7458;49.002;8.472;2023-05-10T07:11:05;16.10;99.90
14735;DHT22;7458;49.002;8.472;2023-05-10T07:13:33;16.40;99.90
14735;DHT22;7458;49.002;8.472;2023-05-10T07:16:00;16.10;99.90
14735;DHT22;7458;49.002;8.472;2023-05-10T07:18:27;16.30;99.90
14735;DHT22;7458;49.002;8.472;2023-05-10T07:20:53;16.10;99.90
14735;DHT22;7458;49.002;8.472;2023-05-10T07:23:19;16.00;99.90
14735;DHT22;7458;49.002;8.472;2023-05-10T07:25:49;15.90;99.90
14735;DHT22;7458;49.002;8.472;2023-05-10T07:30:44;16.60;99.90
14735;DHT22;7458;49.002;8.472;2023-05-10T07:33:12;15.50;99.90
14735;DHT22;7458;49.002;8.472;2023-05-10T07:35:38;15.60;99.90
14735;DHT22;7458;49.002;8.472;2023-05-10T07:38:04;15.40;99.90
14735;DHT22;7458;49.002;8.472;2023-05-10T07:40:31;15.60;99.90
14735;DHT22;7458;49.002;8.472;2023-05-10T07:42:57;15.70;99.90
14735;DHT22;7458;49.002;8.472;2023-05-10T07:45:23;15.80;99.90
14735;DHT22;7458;49.002;8.472;2023-05-10T07:47:49;16.20;99.90
14735;DHT22;7458;49.002;8.472;2023-05-10T07:50:15;16.10;99.90
14735;DHT22;7458;49.002;8.472;2023-05-10T07:52:41;16.50;99.90
14735;DHT22;7458;49.002;8.472;2023-05-10T07:57:34;17.30;99.90
14735;DHT22;7458;49.002;8.472;2023-05-10T08:00:00;17.20;99.90
14735;DHT22;7458;49.002;8.472;2023-05-10T08:02:26;16.80;99.90
14735;DHT22;7458;49.002;8.472;2023-05-10T08:04:51;16.30;99.90
14735;DHT22;7458;49.002;8.472;2023-05-10T08:07:18;17.20;99.90
14735;DHT22;7458;49.002;8.472;2023-05-10T08:09:43;16.00;99.90
14735;DHT22;7458;49.002;8.472;2023-05-10T08:12:09;16.90;99.90
14735;DHT22;7458;49.002;8.472;2023-05-10T08:14:35;18.20;99.90
14735;DHT22;7458;49.002;8.472;2023-05-10T08:17:04;17.20;99.90
14735;DHT22;7458;49.002;8.472;2023-05-10T08:19:30;17.50;99.90
14735;DHT22;7458;49.002;8.472;2023-05-10T08:21:55;17.10;99.90
14735;DHT22;7458;49.002;8.472;2023-05-10T08:24:22;17.30;99.90
14735;DHT22;7458;49.002;8.472;2023-05-10T08:26:48;17.70;99.90
14735;DHT22;7458;49.002;8.472;2023-05-10T08:29:14;17.30;99.90
14735;DHT22;7458;49.002;8.472;2023-05-10T08:34:06;17.30;99.90
14735;DHT22;7458;49.002;8.472;2023-05-10T08:36:32;17.70;99.90
14735;DHT22;7458;49.002;8.472;2023-05-10T08:38:58;18.70;99.90
14735;DHT22;7458;49.002;8.472;2023-05-10T08:41:25;18.20;99.90
14735;DHT22;7458;49.002;8.472;2023-05-10T08:43:54;18.20;99.90
14735;DHT22;7458;49.002;8.472;2023-05-10T08:46:22;18.70;99.90
14735;DHT22;7458;49.002;8.472;2023-05-10T08:48:50;18.00;99.90
14735;DHT22;7458;49.002;8.472;2023-05-10T08:51:23;17.50;99.90
14735;DHT22;7458;49.002;8.472;2023-05-10T08:53:52;17.70;99.90
14735;DHT22;7458;49.002;8.472;2023-05-10T08:56:18;18.40;99.90
14735;DHT22;7458;49.002;8.472;2023-05-10T08:58:46;17.60;99.90
14735;DHT22;7458;49.002;8.472;2023-05-10T09:01:13;17.50;99.90
14735;DHT22;7458;49.002;8.472;2023-05-10T09:03:42;17.80;99.90
14735;DHT22;7458;49.002;8.472;2023-05-10T09:06:08;17.10;99.90
14735;DHT22;7458;49.002;8.472;2023-05-10T09:08:34;17.90;99.90
14735;DHT22;7458;49.002;8.472;2023-05-10T09:11:02;17.30;99.90
14735;DHT22;7458;49.002;8.472;2023-05-10T09:13:28;17.10;99.90
14735;DHT22;7458;49.002;8.472;2023-05-10T09:15:55;17.50;99.90
14735;DHT22;7458;49.002;8.472;2023-05-10T09:18:20;17.30;99.90
14735;DHT22;7458;49.002;8.472;2023-05-10T09:20:46;17.30;99.90
14735;DHT22;7458;49.002;8.472;2023-05-10T09:23:12;17.50;99.90
14735;DHT22;7458;49.002;8.472;2023-05-10T09:25:38;17.60;99.90
14735;DHT22;7458;49.002;8.472;2023-05-10T09:28:07;17.80;99.90
14735;DHT22;7458;49.002;8.472;2023-05-10T09:30:34;17.90;99.90
14735;DHT22;7458;49.002;8.472;2023-05-10T09:33:00;17.90;99.90
14735;DHT22;7458;49.002;8.472;2023-05-10T09:35:28;17.90;99.90
14735;DHT22;7458;49.002;8.472;2023-05-10T09:37:57;17.60;99.90
14735;DHT22;7458;49.002;8.472;2023-05-10T09:40:26;17.10;99.90
14735;DHT22;7458;49.002;8.472;2023-05-10T09:43:02;17.80;99.90
14735;DHT22;7458;49.002;8.472;2023-05-10T09:45:31;17.40;99.90
14735;DHT22;7458;49.002;8.472;2023-05-10T09:47:59;16.70;99.90
14735;DHT22;7458;49.002;8.472;2023-05-10T09:50:26;16.70;99.90
14735;DHT22;7458;49.002;8.472;2023-05-10T09:53:00;16.90;99.90
14735;DHT22;7458;49.002;8.472;2023-05-10T09:55:41;16.80;99.90
14735;DHT22;7458;49.002;8.472;2023-05-10T09:58:12;16.80;99.90
14735;DHT22;7458;49.002;8.472;2023-05-10T10:00:41;16.90;99.90
14735;DHT22;7458;49.002;8.472;2023-05-10T10:03:15;17.00;99.90
14735;DHT22;7458;49.002;8.472;2023-05-10T10:05:43;17.30;99.90
14735;DHT22;7458;49.002;8.472;2023-05-10T10:08:10;17.30;99.90
14735;DHT22;7458;49.002;8.472;2023-05-10T10:10:37;17.10;99.90
14735;DHT22;7458;49.002;8.472;2023-05-10T10:13:05;17.70;99.90
14735;DHT22;7458;49.002;8.472;2023-05-10T10:15:33;18.10;99.90
14735;DHT22;7458;49.002;8.472;2023-05-10T10:18:00;18.60;99.90
14735;DHT22;7458;49.002;8.472;2023-05-10T10:20:27;18.70;99.90
14735;DHT22;7458;49.002;8.472;2023-05-10T10:22:53;18.70;99.90
14735;DHT22;7458;49.002;8.472;2023-05-10T10:25:20;18.10;99.90
14735;DHT22;7458;49.002;8.472;2023-05-10T10:36:03;18.00;99.90
14735;DHT22;7458;49.002;8.472;2023-05-10T10:38:56;17.70;99.90
14735;DHT22;7458;49.002;8.472;2023-05-10T10:41:36;17.90;99.90
14735;DHT22;7458;49.002;8.472;2023-05-10T10:50:05;18.90;99.90
14735;DHT22;7458;49.002;8.472;2023-05-10T10:52:35;19.10;99.90
14735;DHT22;7458;49.002;8.472;2023-05-10T10:55:06;19.20;99.90
14735;DHT22;7458;49.002;8.472;2023-05-10T10:57:52;19.60;99.90
14735;DHT22;7458;49.002;8.472;2023-05-10T11:00:29;20.30;99.90
14735;DHT22;7458;49.002;8.472;2023-05-10T11:03:09;19.70;99.90
14735;DHT22;7458;49.002;8.472;2023-05-10T11:05:47;19.70;99.90
14735;DHT22;7458;49.002;8.472;2023-05-10T11:08:34;19.80;99.90
14735;DHT22;7458;49.002;8.472;2023-05-10T11:11:08;19.70;99.90
14735;DHT22;7458;49.002;8.472;2023-05-10T11:13:41;19.50;99.90
14735;DHT22;7458;49.002;8.472;2023-05-10T11:18:40;19.90;99.90
14735;DHT22;7458;49.002;8.472;2023-05-10T11:21:16;19.70;99.90
14735;DHT22;7458;49.002;8.472;2023-05-10T11:23:51;20.60;99.90
14735;DHT22;7458;49.002;8.472;2023-05-10T11:26:32;19.70;99.90
14735;DHT22;7458;49.002;8.472;2023-05-10T11:29:00;19.60;99.90
14735;DHT22;7458;49.002;8.472;2023-05-10T11:31:28;20.20;99.90
14735;DHT22;7458;49.002;8.472;2023-05-10T11:33:55;19.60;99.90
14735;DHT22;7458;49.002;8.472;2023-05-10T11:36:32;19.20;99.90
14735;DHT22;7458;49.002;8.472;2023-05-10T11:39:00;19.70;99.90
14735;DHT22;7458;49.002;8.472;2023-05-10T11:41:29;19.30;99.90
14735;DHT22;7458;49.002;8.472;2023-05-10T11:43:56;19.00;99.90
14735;DHT22;7458;49.002;8.472;2023-05-10T11:46:25;18.80;99.90
14735;DHT22;7458;49.002;8.472;2023-05-10T11:48:58;18.80;99.90
14735;DHT22;7458;49.002;8.472;2023-05-10T11:51:36;18.30;99.90
14735;DHT22;7458;49.002;8.472;2023-05-10T11:54:06;19.00;99.90
14735;DHT22;7458;49.002;8.472;2023-05-10T11:56:37;19.00;99.90
14735;DHT22;7458;49.002;8.472;2023-05-10T11:59:06;18.90;99.90
14735;DHT22;7458;49.002;8.472;2023-05-10T12:01:33;19.00;99.90
14735;DHT22;7458;49.002;8.472;2023-05-10T12:03:59;18.70;99.90
14735;DHT22;7458;49.002;8.472;2023-05-10T12:06:27;18.70;99.90
14735;DHT22;7458;49.002;8.472;2023-05-10T12:08:56;18.70;99.90
14735;DHT22;7458;49.002;8.472;2023-05-10T12:11:25;18.80;99.90
14735;DHT22;7458;49.002;8.472;2023-05-10T12:13:54;18.60;99.90
14735;DHT22;7458;49.002;8.472;2023-05-10T12:16:26;18.80;99.90
14735;DHT22;7458;49.002;8.472;2023-05-10T12:18:57;18.90;99.90
14735;DHT22;7458;49.002;8.472;2023-05-10T12:21:25;18.90;99.90
14735;DHT22;7458;49.002;8.472;2023-05-10T12:23:59;19.00;99.90
14735;DHT22;7458;49.002;8.472;2023-05-10T12:26:28;19.20;99.90
14735;DHT22;7458;49.002;8.472;2023-05-10T12:28:55;19.30;99.90
14735;DHT22;7458;49.002;8.472;2023-05-10T12:31:57;19.30;99.90
14735;DHT22;7458;49.002;8.472;2023-05-10T12:34:34;19.30;97.40
14735;DHT22;7458;49.002;8.472;2023-05-10T12:37:02;19.20;99.30
14735;DHT22;7458;49.002;8.472;2023-05-10T12:39:43;19.10;99.40
14735;DHT22;7458;49.002;8.472;2023-05-10T12:42:10;19.20;99.60
14735;DHT22;7458;49.002;8.472;2023-05-10T12:44:36;19.30;99.90
14735;DHT22;7458;49.002;8.472;2023-05-10T12:47:01;19.50;99.90
14735;DHT22;7458;49.002;8.472;2023-05-10T12:49:27;19.70;99.90
14735;DHT22;7458;49.002;8.472;2023-05-10T12:51:53;19.80;99.90
14735;DHT22;7458;49.002;8.472;2023-05-10T12:54:19;19.60;97.40
14735;DHT22;7458;49.002;8.472;2023-05-10T12:56:45;19.70;99.40
14735;DHT22;7458;49.002;8.472;2023-05-10T12:59:10;19.80;99.30
14735;DHT22;7458;49.002;8.472;2023-05-10T13:01:36;19.90;99.90
14735;DHT22;7458;49.002;8.472;2023-05-10T13:04:02;19.90;99.10
14735;DHT22;7458;49.002;8.472;2023-05-10T13:06:27;19.80;97.00
14735;DHT22;7458;49.002;8.472;2023-05-10T13:08:53;19.80;97.60
14735;DHT22;7458;49.002;8.472;2023-05-10T13:11:19;19.90;97.10
14735;DHT22;7458;49.002;8.472;2023-05-10T13:13:46;19.90;95.50
14735;DHT22;7458;49.002;8.472;2023-05-10T13:16:11;19.80;93.10
14735;DHT22;7458;49.002;8.472;2023-05-10T13:18:37;19.60;97.30
14735;DHT22;7458;49.002;8.472;2023-05-10T13:21:03;19.70;92.50
14735;DHT22;7458;49.002;8.472;2023-05-10T13:23:30;20.10;96.40
14735;DHT22;7458;49.002;8.472;2023-05-10T13:25:56;20.10;94.40
14735;DHT22;7458;49.002;8.472;2023-05-10T13:28:22;20.10;93.40
14735;DHT22;7458;49.002;8.472;2023-05-10T13:30:47;20.20;94.70
14735;DHT22;7458;49.002;8.472;2023-05-10T13:33:13;20.20;92.30
14735;DHT22;7458;49.002;8.472;2023-05-10T13:35:39;20.10;91.50
14735;DHT22;7458;49.002;8.472;2023-05-10T13:38:05;20.10;93.70
14735;DHT22;7458;49.002;8.472;2023-05-10T13:40:33;20.20;91.50
14735;DHT22;7458;49.002;8.472;2023-05-10T13:42:59;20.10;90.10
14735;DHT22;7458;49.002;8.472;2023-05-10T13:45:25;20.10;91.60
14735;DHT22;7458;49.002;8.472;2023-05-10T13:47:51;20.00;86.70
14735;DHT22;7458;49.002;8.472;2023-05-10T13:50:17;20.00;85.40
14735;DHT22;7458;49.002;8.472;2023-05-10T13:52:43;20.00;93.80
14735;DHT22;7458;49.002;8.472;2023-05-10T13:55:09;20.00;86.70
14735;DHT22;7458;49.002;8.472;2023-05-10T13:57:37;19.90;87.60
14735;DHT22;7458;49.002;8.472;2023-05-10T14:00:03;20.00;89.60
14735;DHT22;7458;49.002;8.472;2023-05-10T14:02:30;19.90;86.60
14735;DHT22;7458;49.002;8.472;2023-05-10T14:04:55;19.90;89.40
14735;DHT22;7458;49.002;8.472;2023-05-10T14:07:22;19.90;88.90
14735;DHT22;7458;49.002;8.472;2023-05-10T14:09:47;19.80;89.60
14735;DHT22;7458;49.002;8.472;2023-05-10T14:12:13;19.80;92.50
14735;DHT22;7458;49.002;8.472;2023-05-10T14:14:40;19.70;90.20
14735;DHT22;7458;49.002;8.472;2023-05-10T14:17:05;19.60;89.90
14735;DHT22;7458;49.002;8.472;2023-05-10T14:19:31;19.60;90.30
14735;DHT22;7458;49.002;8.472;2023-05-10T14:21:59;19.40;90.10
14735;DHT22;7458;49.002;8.472;2023-05-10T14:24:25;19.30;90.80
14735;DHT22;7458;49.002;8.472;2023-05-10T14:26:51;19.20;92.20
14735;DHT22;7458;49.002;8.472;2023-05-10T14:29:19;19.20;92.20
14735;DHT22;7458;49.002;8.472;2023-05-10T14:31:46;19.20;92.40
14735;DHT22;7458;49.002;8.472;2023-05-10T14:34:12;19.30;96.10
14735;DHT22;7458;49.002;8.472;2023-05-10T14:36:37;19.10;97.50
14735;DHT22;7458;49.002;8.472;2023-05-10T14:39:03;19.00;92.60
14735;DHT22;7458;49.002;8.472;2023-05-10T14:41:29;19.10;96.60
14735;DHT22;7458;49.002;8.472;2023-05-10T14:43:55;19.10;98.00
14735;DHT22;7458;49.002;8.472;2023-05-10T14:46:21;19.20;95.50
14735;DHT22;7458;49.002;8.472;2023-05-10T14:48:47;19.40;98.40
14735;DHT22;7458;49.002;8.472;2023-05-10T14:51:12;19.50;97.10
14735;DHT22;7458;49.002;8.472;2023-05-10T14:53:38;19.60;95.20
14735;DHT22;7458;49.002;8.472;2023-05-10T14:56:04;20.10;99.60
14735;DHT22;7458;49.002;8.472;2023-05-10T14:58:30;20.40;94.50
14735;DHT22;7458;49.002;8.472;2023-05-10T15:00:56;20.60;98.60
14735;DHT22;7458;49.002;8.472;2023-05-10T15:03:22;20.40;91.90
14735;DHT22;7458;49.002;8.472;2023-05-10T15:05:48;20.40;95.40
14735;DHT22;7458;49.002;8.472;2023-05-10T15:08:14;20.30;95.20
14735;DHT22;7458;49.002;8.472;2023-05-10T15:10:39;20.30;94.10
14735;DHT22;7458;49.002;8.472;2023-05-10T15:13:05;20.30;96.20
14735;DHT22;7458;49.002;8.472;2023-05-10T15:15:31;20.30;98.50
14735;DHT22;7458;49.002;8.472;2023-05-10T15:17:57;20.20;94.50
14735;DHT22;7458;49.002;8.472;2023-05-10T15:20:22;20.20;94.50
14735;DHT22;7458;49.002;8.472;2023-05-10T15:22:48;20.30;99.90
14735;DHT22;7458;49.002;8.472;2023-05-10T15:25:14;20.10;96.80
14735;DHT22;7458;49.002;8.472;2023-05-10T15:27:41;20.00;96.80
14735;DHT22;7458;49.002;8.472;2023-05-10T15:30:09;20.00;94.70
14735;DHT22;7458;49.002;8.472;2023-05-10T15:32:35;19.90;94.40
14735;DHT22;7458;49.002;8.472;2023-05-10T15:35:01;19.80;95.50
14735;DHT22;7458;49.002;8.472;2023-05-10T15:37:27;19.70;94.50
14735;DHT22;7458;49.002;8.472;2023-05-10T15:39:53;19.60;95.10
14735;DHT22;7458;49.002;8.472;2023-05-10T15:42:19;19.60;94.70
14735;DHT22;7458;49.002;8.472;2023-05-10T15:44:45;19.40;91.70
14735;DHT22;7458;49.002;8.472;2023-05-10T15:47:15;19.40;95.40
14735;DHT22;7458;49.002;8.472;2023-05-10T15:49:41;19.40;97.70
14735;DHT22;7458;49.002;8.472;2023-05-10T15:52:06;19.40;95.60
14735;DHT22;7458;49.002;8.472;2023-05-10T15:54:32;19.30;97.60
14735;DHT22;7458;49.002;8.472;2023-05-10T15:56:58;19.40;97.20
14735;DHT22;7458;49.002;8.472;2023-05-10T15:59:24;19.20;95.80
14735;DHT22;7458;49.002;8.472;2023-05-10T16:01:50;19.10;92.60
14735;DHT22;7458;49.002;8.472;2023-05-10T16:04:16;18.90;94.40
14735;DHT22;7458;49.002;8.472;2023-05-10T16:06:42;18.80;95.30
14735;DHT22;7458;49.002;8.472;2023-05-10T16:09:08;18.80;96.80
14735;DHT22;7458;49.002;8.472;2023-05-10T16:11:34;18.70;95.00
14735;DHT22;7458;49.002;8.472;2023-05-10T16:14:00;18.70;96.50
14735;DHT22;7458;49.002;8.472;2023-05-10T16:16:26;18.60;95.60
14735;DHT22;7458;49.002;8.472;2023-05-10T16:18:52;18.50;96.10
14735;DHT22;7458;49.002;8.472;2023-05-10T16:21:18;18.50;97.10
14735;DHT22;7458;49.002;8.472;2023-05-10T16:23:44;18.50;98.20
14735;DHT22;7458;49.002;8.472;2023-05-10T16:26:11;18.50;98.30
14735;DHT22;7458;49.002;8.472;2023-05-10T16:28:37;18.50;99.50
14735;DHT22;7458;49.002;8.472;2023-05-10T16:31:04;18.60;99.70
14735;DHT22;7458;49.002;8.472;2023-05-10T16:33:30;18.50;99.20
14735;DHT22;7458;49.002;8.472;2023-05-10T16:35:56;18.50;98.30
14735;DHT22;7458;49.002;8.472;2023-05-10T16:38:21;18.40;99.90
14735;DHT22;7458;49.002;8.472;2023-05-10T16:40:47;18.40;98.10
14735;DHT22;7458;49.002;8.472;2023-05-10T16:43:13;18.40;99.90
14735;DHT22;7458;49.002;8.472;2023-05-10T16:45:38;18.40;99.90
14735;DHT22;7458;49.002;8.472;2023-05-10T16:48:05;18.40;99.90
14735;DHT22;7458;49.002;8.472;2023-05-10T16:50:31;18.40;99.90
14735;DHT22;7458;49.002;8.472;2023-05-10T16:52:56;18.00;99.90
14735;DHT22;7458;49.002;8.472;2023-05-10T16:55:22;18.50;99.90
14735;DHT22;7458;49.002;8.472;2023-05-10T16:57:48;18.30;99.90
14735;DHT22;7458;49.002;8.472;2023-05-10T17:00:15;18.30;99.90
14735;DHT22;7458;49.002;8.472;2023-05-10T17:02:41;18.10;99.90
14735;DHT22;7458;49.002;8.472;2023-05-10T17:05:07;17.90;96.80
14735;DHT22;7458;49.002;8.472;2023-05-10T17:07:33;18.10;99.90
14735;DHT22;7458;49.002;8.472;2023-05-10T17:09:59;18.50;99.90
14735;DHT22;7458;49.002;8.472;2023-05-10T17:12:25;18.30;97.50
14735;DHT22;7458;49.002;8.472;2023-05-10T17:14:50;18.20;97.10
14735;DHT22;7458;49.002;8.472;2023-05-10T17:17:16;18.10;96.80
14735;DHT22;7458;49.002;8.472;2023-05-10T17:19:45;18.10;99.40
14735;DHT22;7458;49.002;8.472;2023-05-10T17:22:11;18.00;96.10